Sunday, March 29, 2015
09:26 UTC
  |  Log In   |  Register Free
Airport Search:

Live Oak County Airport
(8T6)

Live Oak County Airport Diagram
No Airport Diagram Available

FAA data valid effective March 05, 2015 - April 30, 2015 (unless otherwise noted).

 
 
 
 
 
 
 
 
 
 
 
 
 
 

Current Aviation Weather for Live Oak County Airport (8T6)

METAR data is unavailable for 8T6. The nearest METAR location is at KBEA (17.2 nm SE from 8T6).

The most recent METAR observation for KBEA was updated at: 1407
METAR Summary (Translated METAR)
KBEA
251355Z AUTO 05003KT 1/2SM FG OVC002 17/17 A2996 RMK AO2 T01730173
(17.2 nm SE from 8T6)
KNOG
251405Z AUTO 15007KT 10SM SCT002 OVC014 19/18 A2996 RMK AO2 T01890183 $
(27.9 nm SE from 8T6)
TAF Summary (Translated TAF)
KALI
(39.3 nm SW from KBEA)
251130Z 2512/2612 14004KT 1/2SM FG VV002 FM251500 16012KT P6SM OVC009 FM251700 15015G22KT P6SM OVC020 FM260200 15010KT 4SM BR OVC008 FM260700 15005KT 1SM BR OVC002
  Airport Weather Conditions for 8T6

Current weather conditions are
not available for 8T6


The nearest NOAA weather station
is at BEA, (17.2 nm SE from 8T6)
  
 Current Weather at BEA
60° F
Fair
South winds at 8.1 mph
BEA NOAA Radar

Pressure: 30.07 in
Humidity: 100%
Wind: South at 8.1 MPH (7 KT)
Dew Point: 59.9°F
Visibility: 10.00 mi


Airport Weather Forecast for 8T6

Translated METAR and TAF for KBEA
Translated METAR for KBEA (0925 UTC 29 March 2015)
found at http://aviationweather.gov/adds/metars/
 
METAR text: KBEA 290915Z AUTO 19008KT 10SM CLR 16/16 A3007 RMK AO2 T01550155
Conditions at: KBEA (BEEVILLE MUNI , TX, US) observed 0915 UTC 29 March 2015
Temperature: 15.5°C (60°F)
Dewpoint: 15.5°C (60°F) [RH = 100%]
Pressure (altimeter): 30.07 inches Hg (1018.4 mb)
Winds: from the S (190 degrees) at 9 MPH (8 knots; 4.2 m/s)
Visibility: 10 or more miles (16+ km)
Ceiling: at least 12,000 feet AGL
Clouds: sky clear below 12,000 feet AGL
Weather: automated observation with no human augmentation;
there may or may not be significant weather present at this time
Translated TAF for KBEA

There is no translated TAF available for this airport

Find All Airport Services Find A Hotel Find A Rental Car Find A Golf Course Find A Restaurant $100 Hamburger



FBO's on the Field
FBO Company Facility Photos Services Transportation Aviation Fuel Prices: Prices include tax
Catering Weather Repair Courtesy Rental Type 100LL JetA JetA+ MOGAS 8087
 
Live Oak Co. Airport

This FBO has not yet been rated
FS:Avfuel
Last Updated: Mar-16
Login to update fuel prices
SS:
Contact Live Oak Co. AirportMore FBO Information
 
Add another FBO Facility Photos Catering Weather Repair Courtesy Rental Type 100LL JetA JetA+ MOGAS 8087
Services Transportation Aviation Fuel Prices: Prices include tax


model-print
model-print
model-print
model-print